sensor_id;sensor_type;location;lat;lon;timestamp;pressure;altitude;pressure_sealevel;temperature;humidity
11190;BME280;5651;50.926;4.718;2022-11-15T00:00:50;100681.34;;;11.13;100.00
11190;BME280;5651;50.926;4.718;2022-11-15T00:03:18;100677.84;;;11.16;100.00
11190;BME280;5651;50.926;4.718;2022-11-15T00:05:44;100683.94;;;11.16;100.00
11190;BME280;5651;50.926;4.718;2022-11-15T00:08:10;100682.19;;;11.17;100.00
11190;BME280;5651;50.926;4.718;2022-11-15T00:10:37;100680.44;;;11.19;100.00
11190;BME280;5651;50.926;4.718;2022-11-15T00:13:11;100685.59;;;11.22;100.00
11190;BME280;5651;50.926;4.718;2022-11-15T00:15:40;100678.59;;;11.29;100.00
11190;BME280;5651;50.926;4.718;2022-11-15T00:18:12;100669.03;;;11.31;100.00
11190;BME280;5651;50.926;4.718;2022-11-15T00:20:37;100673.31;;;11.36;100.00
11190;BME280;5651;50.926;4.718;2022-11-15T00:23:04;100671.50;;;11.41;100.00
11190;BME280;5651;50.926;4.718;2022-11-15T00:25:30;100670.59;;;11.44;100.00
11190;BME280;5651;50.926;4.718;2022-11-15T00:27:57;100673.25;;;11.43;100.00
11190;BME280;5651;50.926;4.718;2022-11-15T00:30:23;100672.28;;;11.48;100.00
11190;BME280;5651;50.926;4.718;2022-11-15T00:32:49;100676.66;;;11.48;100.00
11190;BME280;5651;50.926;4.718;2022-11-15T00:35:15;100675.81;;;11.47;100.00
11190;BME280;5651;50.926;4.718;2022-11-15T00:37:41;100676.66;;;11.48;100.00
11190;BME280;5651;50.926;4.718;2022-11-15T00:40:07;100678.38;;;11.49;100.00
11190;BME280;5651;50.926;4.718;2022-11-15T00:42:34;100681.78;;;11.54;100.00
11190;BME280;5651;50.926;4.718;2022-11-15T00:44:59;100676.56;;;11.54;100.00
11190;BME280;5651;50.926;4.718;2022-11-15T00:47:25;100683.56;;;11.53;100.00
11190;BME280;5651;50.926;4.718;2022-11-15T00:49:51;100685.25;;;11.57;100.00
11190;BME280;5651;50.926;4.718;2022-11-15T00:52:16;100686.13;;;11.58;100.00
11190;BME280;5651;50.926;4.718;2022-11-15T00:54:42;100686.00;;;11.66;100.00
11190;BME280;5651;50.926;4.718;2022-11-15T00:57:08;100691.22;;;11.67;100.00
11190;BME280;5651;50.926;4.718;2022-11-15T00:59:33;100681.56;;;11.74;100.00
11190;BME280;5651;50.926;4.718;2022-11-15T01:01:59;100682.50;;;11.68;100.00
11190;BME280;5651;50.926;4.718;2022-11-15T01:04:25;100679.00;;;11.69;100.00
11190;BME280;5651;50.926;4.718;2022-11-15T01:06:50;100683.31;;;11.73;100.00
11190;BME280;5651;50.926;4.718;2022-11-15T01:09:16;100678.88;;;11.80;100.00
11190;BME280;5651;50.926;4.718;2022-11-15T01:11:42;100675.41;;;11.80;100.00
11190;BME280;5651;50.926;4.718;2022-11-15T01:14:07;100677.16;;;11.81;100.00
11190;BME280;5651;50.926;4.718;2022-11-15T01:16:33;100678.88;;;11.80;100.00
11190;BME280;5651;50.926;4.718;2022-11-15T01:18:59;100673.66;;;11.82;100.00
11190;BME280;5651;50.926;4.718;2022-11-15T01:21:25;100673.66;;;11.80;100.00
11190;BME280;5651;50.926;4.718;2022-11-15T01:23:55;100671.03;;;11.83;100.00
11190;BME280;5651;50.926;4.718;2022-11-15T01:26:22;100664.06;;;11.82;100.00
11190;BME280;5651;50.926;4.718;2022-11-15T01:28:48;100663.19;;;11.83;100.00
11190;BME280;5651;50.926;4.718;2022-11-15T01:31:19;100655.34;;;11.83;100.00
11190;BME280;5651;50.926;4.718;2022-11-15T01:33:46;100651.81;;;11.89;100.00
11190;BME280;5651;50.926;4.718;2022-11-15T01:36:14;100647.41;;;11.93;100.00
11190;BME280;5651;50.926;4.718;2022-11-15T01:38:40;100648.28;;;11.92;100.00
11190;BME280;5651;50.926;4.718;2022-11-15T01:41:11;100647.34;;;11.96;100.00
11190;BME280;5651;50.926;4.718;2022-11-15T01:43:39;100650.00;;;11.91;100.00
11190;BME280;5651;50.926;4.718;2022-11-15T01:46:17;100649.16;;;11.91;100.00
11190;BME280;5651;50.926;4.718;2022-11-15T01:48:44;100647.44;;;11.89;100.00
11190;BME280;5651;50.926;4.718;2022-11-15T01:51:13;100643.09;;;11.88;100.00
11190;BME280;5651;50.926;4.718;2022-11-15T01:53:43;100645.69;;;11.92;100.00
11190;BME280;5651;50.926;4.718;2022-11-15T01:56:14;100640.34;;;12.01;100.00
11190;BME280;5651;50.926;4.718;2022-11-15T01:58:41;100642.06;;;12.03;100.00
11190;BME280;5651;50.926;4.718;2022-11-15T02:01:08;100642.06;;;12.03;100.00
11190;BME280;5651;50.926;4.718;2022-11-15T02:03:41;100640.28;;;12.05;100.00
11190;BME280;5651;50.926;4.718;2022-11-15T02:06:09;100634.19;;;12.05;100.00
11190;BME280;5651;50.926;4.718;2022-11-15T02:08:36;100634.22;;;12.03;100.00
11190;BME280;5651;50.926;4.718;2022-11-15T02:11:07;100635.97;;;12.03;100.00
11190;BME280;5651;50.926;4.718;2022-11-15T02:13:33;100634.25;;;12.00;100.00
11190;BME280;5651;50.926;4.718;2022-11-15T02:18:41;100626.41;;;12.03;100.00
11190;BME280;5651;50.926;4.718;2022-11-15T02:21:20;100619.31;;;12.12;100.00
11190;BME280;5651;50.926;4.718;2022-11-15T02:32:42;100609.53;;;12.25;100.00
11190;BME280;5651;50.926;4.718;2022-11-15T02:38:31;100603.56;;;12.16;100.00
11190;BME280;5651;50.926;4.718;2022-11-15T02:41:36;100595.81;;;12.12;100.00
11190;BME280;5651;50.926;4.718;2022-11-15T02:44:53;100600.13;;;12.14;100.00
11190;BME280;5651;50.926;4.718;2022-11-15T02:47:02;100593.19;;;12.12;100.00
11190;BME280;5651;50.926;4.718;2022-11-15T02:49:41;100595.72;;;12.18;100.00
11190;BME280;5651;50.926;4.718;2022-11-15T02:52:08;100593.97;;;12.17;100.00
11190;BME280;5651;50.926;4.718;2022-11-15T02:54:34;100586.16;;;12.17;100.00
11190;BME280;5651;50.926;4.718;2022-11-15T02:57:22;100587.88;;;12.16;100.00
11190;BME280;5651;50.926;4.718;2022-11-15T03:00:04;100584.41;;;12.16;100.00
11190;BME280;5651;50.926;4.718;2022-11-15T03:05:25;100588.75;;;12.17;100.00
11190;BME280;5651;50.926;4.718;2022-11-15T03:13:27;100578.25;;;12.20;100.00
11190;BME280;5651;50.926;4.718;2022-11-15T03:16:04;100580.06;;;12.15;100.00
11190;BME280;5651;50.926;4.718;2022-11-15T03:18:34;100575.63;;;12.22;100.00
11190;BME280;5651;50.926;4.718;2022-11-15T03:21:06;100575.66;;;12.18;100.00
11190;BME280;5651;50.926;4.718;2022-11-15T03:23:34;100572.25;;;12.15;100.00
11190;BME280;5651;50.926;4.718;2022-11-15T03:26:06;100582.63;;;12.19;100.00
11190;BME280;5651;50.926;4.718;2022-11-15T03:29:19;100577.28;;;12.27;100.00
11190;BME280;5651;50.926;4.718;2022-11-15T03:31:28;100575.63;;;12.20;100.00
11190;BME280;5651;50.926;4.718;2022-11-15T03:34:33;100574.78;;;12.19;100.00
11190;BME280;5651;50.926;4.718;2022-11-15T03:37:01;100574.81;;;12.18;100.00
11190;BME280;5651;50.926;4.718;2022-11-15T03:39:27;100573.09;;;12.17;100.00
11190;BME280;5651;50.926;4.718;2022-11-15T03:47:42;100575.69;;;12.17;100.00
11190;BME280;5651;50.926;4.718;2022-11-15T03:50:13;100586.19;;;12.14;100.00
11190;BME280;5651;50.926;4.718;2022-11-15T03:52:41;100587.88;;;12.18;100.00
11190;BME280;5651;50.926;4.718;2022-11-15T03:55:12;100587.91;;;12.15;100.00
11190;BME280;5651;50.926;4.718;2022-11-15T03:57:39;100580.91;;;12.17;100.00
11190;BME280;5651;50.926;4.718;2022-11-15T04:00:05;100581.75;;;12.19;100.00
11190;BME280;5651;50.926;4.718;2022-11-15T04:02:31;100585.22;;;12.19;100.00
11190;BME280;5651;50.926;4.718;2022-11-15T04:04:56;100583.47;;;12.20;100.00
11190;BME280;5651;50.926;4.718;2022-11-15T04:07:22;100589.56;;;12.20;100.00
11190;BME280;5651;50.926;4.718;2022-11-15T04:09:48;100587.03;;;12.16;100.00
11190;BME280;5651;50.926;4.718;2022-11-15T04:12:30;100575.78;;;12.11;100.00
11190;BME280;5651;50.926;4.718;2022-11-15T04:15:03;100581.03;;;12.09;100.00
11190;BME280;5651;50.926;4.718;2022-11-15T04:17:33;100585.38;;;12.12;100.00
11190;BME280;5651;50.926;4.718;2022-11-15T04:19:59;100591.47;;;12.11;100.00
11190;BME280;5651;50.926;4.718;2022-11-15T04:22:43;100585.47;;;12.04;100.00
11190;BME280;5651;50.926;4.718;2022-11-15T04:25:28;100589.84;;;12.02;100.00
11190;BME280;5651;50.926;4.718;2022-11-15T04:27:54;100582.88;;;12.01;100.00
11190;BME280;5651;50.926;4.718;2022-11-15T04:30:20;100587.22;;;12.03;100.00
11190;BME280;5651;50.926;4.718;2022-11-15T04:32:45;100588.97;;;12.04;100.00
11190;BME280;5651;50.926;4.718;2022-11-15T04:35:11;100590.78;;;11.96;100.00
11190;BME280;5651;50.926;4.718;2022-11-15T04:37:37;100589.16;;;11.87;100.00
11190;BME280;5651;50.926;4.718;2022-11-15T04:40:03;100587.34;;;11.91;100.00
11190;BME280;5651;50.926;4.718;2022-11-15T04:42:28;100589.16;;;11.89;100.00
11190;BME280;5651;50.926;4.718;2022-11-15T04:44:54;100589.16;;;11.87;100.00
11190;BME280;5651;50.926;4.718;2022-11-15T04:47:21;100588.31;;;11.85;100.00
11190;BME280;5651;50.926;4.718;2022-11-15T04:49:46;100591.69;;;11.92;100.00
11190;BME280;5651;50.926;4.718;2022-11-15T04:52:12;100586.53;;;11.89;100.00
11190;BME280;5651;50.926;4.718;2022-11-15T04:54:38;100585.72;;;11.84;100.00
11190;BME280;5651;50.926;4.718;2022-11-15T04:57:03;100591.03;;;11.78;100.00
11190;BME280;5651;50.926;4.718;2022-11-15T04:59:29;100580.63;;;11.76;100.00
11190;BME280;5651;50.926;4.718;2022-11-15T05:01:54;100581.41;;;11.81;100.00
11190;BME280;5651;50.926;4.718;2022-11-15T05:04:20;100579.03;;;11.64;100.00
11190;BME280;5651;50.926;4.718;2022-11-15T05:06:47;100576.44;;;11.63;100.00
11190;BME280;5651;50.926;4.718;2022-11-15T05:09:13;100581.69;;;11.60;100.00
11190;BME280;5651;50.926;4.718;2022-11-15T05:11:39;100578.16;;;11.64;100.00
11190;BME280;5651;50.926;4.718;2022-11-15T05:14:05;100574.75;;;11.58;100.00
11190;BME280;5651;50.926;4.718;2022-11-15T05:16:31;100574.81;;;11.54;100.00
11190;BME280;5651;50.926;4.718;2022-11-15T05:18:56;100581.78;;;11.53;100.00
11190;BME280;5651;50.926;4.718;2022-11-15T05:21:22;100589.69;;;11.46;100.00
11190;BME280;5651;50.926;4.718;2022-11-15T05:23:48;100600.16;;;11.44;100.00
11190;BME280;5651;50.926;4.718;2022-11-15T05:26:16;100578.34;;;11.50;100.00
11190;BME280;5651;50.926;4.718;2022-11-15T05:28:43;100589.75;;;11.43;100.00
11190;BME280;5651;50.926;4.718;2022-11-15T05:31:13;100590.56;;;11.46;100.00
11190;BME280;5651;50.926;4.718;2022-11-15T05:33:40;100585.34;;;11.45;100.00
11190;BME280;5651;50.926;4.718;2022-11-15T05:36:12;100588.94;;;11.36;100.00
11190;BME280;5651;50.926;4.718;2022-11-15T05:38:39;100589.84;;;11.33;100.00
11190;BME280;5651;50.926;4.718;2022-11-15T05:41:05;100588.16;;;11.31;100.00
11190;BME280;5651;50.926;4.718;2022-11-15T05:43:33;100584.66;;;11.30;100.00
11190;BME280;5651;50.926;4.718;2022-11-15T05:46:03;100578.56;;;11.31;100.00
11190;BME280;5651;50.926;4.718;2022-11-15T05:48:29;100590.78;;;11.28;100.00
11190;BME280;5651;50.926;4.718;2022-11-15T05:50:56;100581.22;;;11.28;100.00
11190;BME280;5651;50.926;4.718;2022-11-15T05:53:23;100589.97;;;11.22;100.00
11190;BME280;5651;50.926;4.718;2022-11-15T05:55:50;100592.66;;;11.15;100.00
11190;BME280;5651;50.926;4.718;2022-11-15T05:58:17;100593.53;;;11.15;100.00
11190;BME280;5651;50.926;4.718;2022-11-15T06:00:43;100595.31;;;11.12;100.00
11190;BME280;5651;50.926;4.718;2022-11-15T06:03:09;100593.69;;;11.01;100.00
11190;BME280;5651;50.926;4.718;2022-11-15T06:05:35;100600.78;;;10.90;100.00
11190;BME280;5651;50.926;4.718;2022-11-15T06:08:00;100605.19;;;10.80;100.00
11190;BME280;5651;50.926;4.718;2022-11-15T06:10:26;100588.72;;;10.76;100.00
11190;BME280;5651;50.926;4.718;2022-11-15T06:13:02;100596.56;;;10.73;100.00
11190;BME280;5651;50.926;4.718;2022-11-15T06:15:28;100595.72;;;10.71;100.00
11190;BME280;5651;50.926;4.718;2022-11-15T06:17:57;100593.91;;;10.80;100.00
11190;BME280;5651;50.926;4.718;2022-11-15T06:20:26;100592.16;;;10.82;100.00
11190;BME280;5651;50.926;4.718;2022-11-15T06:22:56;100600.94;;;10.70;100.00
11190;BME280;5651;50.926;4.718;2022-11-15T06:25:23;100598.38;;;10.65;100.00
11190;BME280;5651;50.926;4.718;2022-11-15T06:27:52;100602.78;;;10.58;100.00
11190;BME280;5651;50.926;4.718;2022-11-15T06:30:19;100606.31;;;10.53;100.00
11190;BME280;5651;50.926;4.718;2022-11-15T06:32:44;100602.84;;;10.51;100.00
11190;BME280;5651;50.926;4.718;2022-11-15T06:35:10;100601.13;;;10.46;100.00
11190;BME280;5651;50.926;4.718;2022-11-15T06:37:36;100605.53;;;10.41;100.00
11190;BME280;5651;50.926;4.718;2022-11-15T06:40:02;100601.22;;;10.34;100.00
11190;BME280;5651;50.926;4.718;2022-11-15T06:42:28;100598.63;;;10.33;100.00
11190;BME280;5651;50.926;4.718;2022-11-15T06:44:53;100595.16;;;10.27;100.00
11190;BME280;5651;50.926;4.718;2022-11-15T06:47:19;100597.84;;;10.20;100.00
11190;BME280;5651;50.926;4.718;2022-11-15T06:49:45;100603.06;;;10.18;100.00
11190;BME280;5651;50.926;4.718;2022-11-15T06:52:10;100595.34;;;10.04;100.00
11190;BME280;5651;50.926;4.718;2022-11-15T06:54:36;100591.03;;;9.98;100.00
11190;BME280;5651;50.926;4.718;2022-11-15T06:57:04;100596.31;;;9.91;100.00
11190;BME280;5651;50.926;4.718;2022-11-15T06:59:29;100590.28;;;9.82;100.00
11190;BME280;5651;50.926;4.718;2022-11-15T07:01:55;100600.72;;;9.75;100.00
11190;BME280;5651;50.926;4.718;2022-11-15T07:04:21;100608.56;;;9.67;100.00
11190;BME280;5651;50.926;4.718;2022-11-15T07:06:47;100601.66;;;9.63;100.00
11190;BME280;5651;50.926;4.718;2022-11-15T07:09:13;100617.28;;;9.55;100.00
11190;BME280;5651;50.926;4.718;2022-11-15T07:11:39;100613.84;;;9.50;100.00
11190;BME280;5651;50.926;4.718;2022-11-15T07:14:05;100617.31;;;9.46;100.00
11190;BME280;5651;50.926;4.718;2022-11-15T07:16:30;100621.69;;;9.41;100.00
11190;BME280;5651;50.926;4.718;2022-11-15T07:18:56;100621.66;;;9.45;100.00
11190;BME280;5651;50.926;4.718;2022-11-15T07:21:22;100627.75;;;9.40;100.00
11190;BME280;5651;50.926;4.718;2022-11-15T07:23:48;100630.34;;;9.35;100.00
11190;BME280;5651;50.926;4.718;2022-11-15T07:26:14;100623.44;;;9.34;100.00
11190;BME280;5651;50.926;4.718;2022-11-15T07:28:39;100623.44;;;9.34;100.00
11190;BME280;5651;50.926;4.718;2022-11-15T07:31:07;100622.56;;;9.38;100.00
11190;BME280;5651;50.926;4.718;2022-11-15T07:33:33;100615.63;;;9.35;100.00
11190;BME280;5651;50.926;4.718;2022-11-15T07:36:01;100610.41;;;9.34;100.00
11190;BME280;5651;50.926;4.718;2022-11-15T07:38:30;100609.53;;;9.36;100.00
11190;BME280;5651;50.926;4.718;2022-11-15T07:40:57;100598.28;;;9.36;100.00
11190;BME280;5651;50.926;4.718;2022-11-15T07:43:24;100600.03;;;9.40;100.00
11190;BME280;5651;50.926;4.718;2022-11-15T07:45:49;100610.44;;;9.40;100.00
11190;BME280;5651;50.926;4.718;2022-11-15T07:48:15;100609.53;;;9.40;100.00
11190;BME280;5651;50.926;4.718;2022-11-15T07:50:41;100609.53;;;9.47;100.00
11190;BME280;5651;50.926;4.718;2022-11-15T07:53:08;100623.34;;;9.56;100.00
11190;BME280;5651;50.926;4.718;2022-11-15T07:55:34;100618.16;;;9.52;100.00
11190;BME280;5651;50.926;4.718;2022-11-15T07:58:09;100618.19;;;9.51;100.00
11190;BME280;5651;50.926;4.718;2022-11-15T08:00:35;100620.78;;;9.48;100.00
11190;BME280;5651;50.926;4.718;2022-11-15T08:05:32;100612.97;;;9.52;100.00
11190;BME280;5651;50.926;4.718;2022-11-15T08:07:57;100599.97;;;9.52;100.00
11190;BME280;5651;50.926;4.718;2022-11-15T08:10:23;100608.63;;;9.51;100.00
11190;BME280;5651;50.926;4.718;2022-11-15T08:12:57;100599.94;;;9.54;100.00
11190;BME280;5651;50.926;4.718;2022-11-15T08:15:23;100600.81;;;9.58;100.00
11190;BME280;5651;50.926;4.718;2022-11-15T08:17:53;100586.06;;;9.57;100.00
11190;BME280;5651;50.926;4.718;2022-11-15T08:20:19;100587.75;;;9.64;100.00
11190;BME280;5651;50.926;4.718;2022-11-15T08:22:45;100568.69;;;9.65;100.00
11190;BME280;5651;50.926;4.718;2022-11-15T08:25:10;100562.59;;;9.67;100.00
11190;BME280;5651;50.926;4.718;2022-11-15T08:27:36;100562.56;;;9.72;100.00
11190;BME280;5651;50.926;4.718;2022-11-15T08:30:02;100574.69;;;9.76;100.00
11190;BME280;5651;50.926;4.718;2022-11-15T08:32:28;100567.72;;;9.78;100.00
11190;BME280;5651;50.926;4.718;2022-11-15T08:34:53;100565.97;;;9.83;100.00
11190;BME280;5651;50.926;4.718;2022-11-15T08:37:19;100557.31;;;9.85;100.00
11190;BME280;5651;50.926;4.718;2022-11-15T08:39:46;100555.50;;;9.91;100.00
11190;BME280;5651;50.926;4.718;2022-11-15T08:42:11;100552.06;;;9.91;100.00
11190;BME280;5651;50.926;4.718;2022-11-15T08:44:38;100543.34;;;9.95;100.00
11190;BME280;5651;50.926;4.718;2022-11-15T08:47:04;100541.56;;;10.02;100.00
11190;BME280;5651;50.926;4.718;2022-11-15T08:49:30;100543.28;;;10.04;100.00
11190;BME280;5651;50.926;4.718;2022-11-15T08:51:55;100538.03;;;10.12;100.00
11190;BME280;5651;50.926;4.718;2022-11-15T08:54:21;100546.66;;;10.17;100.00
11190;BME280;5651;50.926;4.718;2022-11-15T08:56:47;100532.75;;;10.20;100.00
11190;BME280;5651;50.926;4.718;2022-11-15T08:59:13;100532.72;;;10.21;100.00
11190;BME280;5651;50.926;4.718;2022-11-15T09:01:38;100532.66;;;10.27;100.00
11190;BME280;5651;50.926;4.718;2022-11-15T09:04:04;100531.88;;;10.21;100.00
11190;BME280;5651;50.926;4.718;2022-11-15T09:06:30;100540.50;;;10.29;100.00
11190;BME280;5651;50.926;4.718;2022-11-15T09:08:56;100537.00;;;10.28;100.00
11190;BME280;5651;50.926;4.718;2022-11-15T09:11:22;100534.38;;;10.35;100.00
11190;BME280;5651;50.926;4.718;2022-11-15T09:13:49;100533.50;;;10.31;100.00
11190;BME280;5651;50.926;4.718;2022-11-15T09:16:15;100540.44;;;10.37;100.00
11190;BME280;5651;50.926;4.718;2022-11-15T09:18:41;100543.03;;;10.37;100.00
11190;BME280;5651;50.926;4.718;2022-11-15T09:21:08;100538.66;;;10.43;100.00
11190;BME280;5651;50.926;4.718;2022-11-15T09:23:34;100529.91;;;10.51;100.00
11190;BME280;5651;50.926;4.718;2022-11-15T09:26:00;100529.84;;;10.54;100.00
11190;BME280;5651;50.926;4.718;2022-11-15T09:28:28;100533.25;;;10.65;100.00
11190;BME280;5651;50.926;4.718;2022-11-15T09:31:01;100532.28;;;10.75;99.10
11190;BME280;5651;50.926;4.718;2022-11-15T09:33:28;100523.63;;;10.70;98.74
11190;BME280;5651;50.926;4.718;2022-11-15T09:35:59;100522.72;;;10.73;99.26
11190;BME280;5651;50.926;4.718;2022-11-15T09:38:26;100519.16;;;10.82;98.34
11190;BME280;5651;50.926;4.718;2022-11-15T09:44:11;100515.66;;;10.84;98.49
11190;BME280;5651;50.926;4.718;2022-11-15T09:49:17;100512.97;;;10.90;97.98
11190;BME280;5651;50.926;4.718;2022-11-15T09:51:45;100510.41;;;10.89;96.87
11190;BME280;5651;50.926;4.718;2022-11-15T09:57:12;100505.88;;;11.03;96.04
11190;BME280;5651;50.926;4.718;2022-11-15T10:00:04;100505.88;;;11.06;96.50
11190;BME280;5651;50.926;4.718;2022-11-15T10:05:10;100490.06;;;11.16;95.64
11190;BME280;5651;50.926;4.718;2022-11-15T10:07:59;100489.16;;;11.18;95.09
11190;BME280;5651;50.926;4.718;2022-11-15T10:10:43;100484.72;;;11.28;92.94
11190;BME280;5651;50.926;4.718;2022-11-15T10:13:22;100494.22;;;11.32;93.46
11190;BME280;5651;50.926;4.718;2022-11-15T10:15:49;100488.91;;;11.40;92.69
11190;BME280;5651;50.926;4.718;2022-11-15T10:18:16;100483.72;;;11.37;92.34
11190;BME280;5651;50.926;4.718;2022-11-15T10:20:49;100474.88;;;11.49;92.33
11190;BME280;5651;50.926;4.718;2022-11-15T10:23:21;100465.22;;;11.54;92.43
11190;BME280;5651;50.926;4.718;2022-11-15T10:25:51;100467.88;;;11.51;91.41
11190;BME280;5651;50.926;4.718;2022-11-15T10:28:23;100459.16;;;11.52;91.44
11190;BME280;5651;50.926;4.718;2022-11-15T10:30:54;100459.06;;;11.58;90.95
11190;BME280;5651;50.926;4.718;2022-11-15T10:33:26;100447.69;;;11.62;91.42
11190;BME280;5651;50.926;4.718;2022-11-15T10:36:20;100436.56;;;11.51;90.41
11190;BME280;5651;50.926;4.718;2022-11-15T10:41:20;100430.13;;;11.73;91.34
11190;BME280;5651;50.926;4.718;2022-11-15T10:46:38;100419.41;;;11.91;90.09
11190;BME280;5651;50.926;4.718;2022-11-15T10:49:24;100414.13;;;11.92;89.66
11190;BME280;5651;50.926;4.718;2022-11-15T10:57:23;100402.56;;;12.09;89.68
11190;BME280;5651;50.926;4.718;2022-11-15T11:07:58;100363.91;;;12.28;89.29
11190;BME280;5651;50.926;4.718;2022-11-15T11:10:24;100362.09;;;12.31;88.09
11190;BME280;5651;50.926;4.718;2022-11-15T11:12:50;100362.94;;;12.32;88.18
11190;BME280;5651;50.926;4.718;2022-11-15T11:15:16;100355.97;;;12.32;88.09
11190;BME280;5651;50.926;4.718;2022-11-15T11:18:06;100336.81;;;12.32;87.68
11190;BME280;5651;50.926;4.718;2022-11-15T11:20:45;100341.16;;;12.34;87.81
11190;BME280;5651;50.926;4.718;2022-11-15T11:26:34;100330.47;;;12.45;87.37
11190;BME280;5651;50.926;4.718;2022-11-15T11:40:07;100306.53;;;12.64;87.12
11190;BME280;5651;50.926;4.718;2022-11-15T11:43:19;100297.88;;;12.62;85.77
11190;BME280;5651;50.926;4.718;2022-11-15T11:50:52;100288.63;;;12.86;85.23
11190;BME280;5651;50.926;4.718;2022-11-15T11:53:28;100284.97;;;12.92;85.62
11190;BME280;5651;50.926;4.718;2022-11-15T11:56:02;100280.38;;;13.03;85.80
11190;BME280;5651;50.926;4.718;2022-11-15T11:58:36;100264.69;;;13.03;85.32
11190;BME280;5651;50.926;4.718;2022-11-15T12:03:48;100260.28;;;13.05;84.36
11190;BME280;5651;50.926;4.718;2022-11-15T12:09:38;100245.44;;;13.06;84.84
11190;BME280;5651;50.926;4.718;2022-11-15T12:12:21;100239.09;;;13.14;84.36
11190;BME280;5651;50.926;4.718;2022-11-15T12:14:51;100239.19;;;13.11;84.11
11190;BME280;5651;50.926;4.718;2022-11-15T12:17:22;100233.91;;;13.13;85.17
11190;BME280;5651;50.926;4.718;2022-11-15T12:19:49;100227.28;;;12.99;82.61
11190;BME280;5651;50.926;4.718;2022-11-15T12:22:22;100223.56;;;13.08;82.93
11190;BME280;5651;50.926;4.718;2022-11-15T12:24:57;100223.50;;;13.11;83.64
11190;BME280;5651;50.926;4.718;2022-11-15T12:27:40;100211.16;;;13.16;84.76
11190;BME280;5651;50.926;4.718;2022-11-15T12:30:19;100213.66;;;13.21;84.08
11190;BME280;5651;50.926;4.718;2022-11-15T12:32:59;100212.16;;;13.12;84.29
11190;BME280;5651;50.926;4.718;2022-11-15T12:35:38;100207.88;;;13.08;83.56
11190;BME280;5651;50.926;4.718;2022-11-15T12:38:08;100203.53;;;13.09;84.68
11190;BME280;5651;50.926;4.718;2022-11-15T12:40:37;100194.56;;;13.18;83.89
11190;BME280;5651;50.926;4.718;2022-11-15T12:43:32;100194.69;;;13.13;85.15
11190;BME280;5651;50.926;4.718;2022-11-15T12:45:50;100183.22;;;13.19;84.48
11190;BME280;5651;50.926;4.718;2022-11-15T12:56:20;100165.66;;;13.22;84.31
11190;BME280;5651;50.926;4.718;2022-11-15T12:58:52;100155.28;;;13.19;85.10
11190;BME280;5651;50.926;4.718;2022-11-15T13:04:23;100146.53;;;13.20;85.51
11190;BME280;5651;50.926;4.718;2022-11-15T13:11:55;100136.78;;;13.27;85.86
11190;BME280;5651;50.926;4.718;2022-11-15T13:22:49;100111.50;;;13.57;86.75
11190;BME280;5651;50.926;4.718;2022-11-15T13:25:48;100102.56;;;13.65;84.94
11190;BME280;5651;50.926;4.718;2022-11-15T13:35:55;100084.22;;;13.66;85.66
11190;BME280;5651;50.926;4.718;2022-11-15T13:38:26;100088.81;;;13.58;85.45
11190;BME280;5651;50.926;4.718;2022-11-15T13:40:53;100072.44;;;13.51;85.85
11190;BME280;5651;50.926;4.718;2022-11-15T13:46:19;100065.22;;;13.59;85.83
11190;BME280;5651;50.926;4.718;2022-11-15T13:48:48;100056.66;;;13.54;86.08
11190;BME280;5651;50.926;4.718;2022-11-15T13:56:32;100055.06;;;13.49;86.10
11190;BME280;5651;50.926;4.718;2022-11-15T13:59:00;100046.19;;;13.54;86.79
11190;BME280;5651;50.926;4.718;2022-11-15T14:01:30;100030.41;;;13.56;86.82
11190;BME280;5651;50.926;4.718;2022-11-15T14:03:58;100031.38;;;13.53;86.40
11190;BME280;5651;50.926;4.718;2022-11-15T14:06:27;100024.16;;;13.60;86.88
11190;BME280;5651;50.926;4.718;2022-11-15T14:11:53;100020.78;;;13.56;86.91
11190;BME280;5651;50.926;4.718;2022-11-15T14:14:24;100018.16;;;13.56;87.13
11190;BME280;5651;50.926;4.718;2022-11-15T14:16:58;100006.00;;;13.55;87.10
11190;BME280;5651;50.926;4.718;2022-11-15T14:25:33;100001.38;;;13.63;87.21
11190;BME280;5651;50.926;4.718;2022-11-15T14:27:33;100002.38;;;13.59;86.57
11190;BME280;5651;50.926;4.718;2022-11-15T14:29:59;100000.66;;;13.58;86.25
11190;BME280;5651;50.926;4.718;2022-11-15T14:32:28;99995.38;;;13.60;86.74
11190;BME280;5651;50.926;4.718;2022-11-15T14:34:57;99992.81;;;13.58;87.00
11190;BME280;5651;50.926;4.718;2022-11-15T14:37:31;99991.22;;;13.54;87.26
11190;BME280;5651;50.926;4.718;2022-11-15T14:39:59;99986.97;;;13.50;87.52
11190;BME280;5651;50.926;4.718;2022-11-15T14:42:25;99986.06;;;13.51;87.96
11190;BME280;5651;50.926;4.718;2022-11-15T14:44:51;99988.81;;;13.46;88.73
11190;BME280;5651;50.926;4.718;2022-11-15T14:47:17;99982.88;;;13.41;89.18
11190;BME280;5651;50.926;4.718;2022-11-15T14:49:43;99981.91;;;13.44;89.37
11190;BME280;5651;50.926;4.718;2022-11-15T14:54:47;99975.09;;;13.38;89.33
11190;BME280;5651;50.926;4.718;2022-11-15T14:57:12;99985.59;;;13.37;89.54
11190;BME280;5651;50.926;4.718;2022-11-15T14:59:38;99975.22;;;13.34;89.84
11190;BME280;5651;50.926;4.718;2022-11-15T15:02:13;99965.69;;;13.31;90.10
11190;BME280;5651;50.926;4.718;2022-11-15T15:04:41;99971.06;;;13.26;90.38
11190;BME280;5651;50.926;4.718;2022-11-15T15:07:06;99971.25;;;13.20;90.96
11190;BME280;5651;50.926;4.718;2022-11-15T15:09:32;99966.16;;;13.15;91.72
11190;BME280;5651;50.926;4.718;2022-11-15T15:11:58;99967.81;;;13.18;91.55
11190;BME280;5651;50.926;4.718;2022-11-15T15:14:23;99962.81;;;13.10;91.81
11190;BME280;5651;50.926;4.718;2022-11-15T15:16:49;99960.16;;;13.12;91.35
11190;BME280;5651;50.926;4.718;2022-11-15T15:19:14;99961.22;;;13.06;92.13
11190;BME280;5651;50.926;4.718;2022-11-15T15:21:40;99954.22;;;13.07;92.72
11190;BME280;5651;50.926;4.718;2022-11-15T15:24:12;99950.50;;;13.14;91.25